Time;durP1;ratioP1;P1;durP2;ratioP2;P2;SDS_P1;SDS_P2;PMS_P1;PMS_P2;Temp;Humidity;BMP_temperature;BMP_pressure;BME280_temperature;BME280_humidity;BME280_pressure;Samples;Min_cycle;Max_cycle;Signal;HPM_P1;HPM_P2
2023/12/01 00:01:04;;;;;;;0.00;0.00;;;5.20;78.50;;;;;;5056345;28;20205;-26
2023/12/01 00:03:34;;;;;;;0.00;0.00;;;5.20;78.40;;;;;;5068007;28;20202;-26
2023/12/01 00:06:04;;;;;;;0.00;0.00;;;5.20;78.30;;;;;;5067755;28;20235;-26
2023/12/01 00:08:33;;;;;;;0.00;0.00;;;5.30;78.30;;;;;;5055251;28;20694;-26
2023/12/01 00:11:01;;;;;;;0.00;0.00;;;5.20;78.30;;;;;;5060786;28;20215;-26
2023/12/01 00:13:32;;;;;;;0.00;0.00;;;5.20;78.20;;;;;;5059733;28;20196;-27
2023/12/01 00:16:00;;;;;;;0.00;0.00;;;5.20;78.30;;;;;;5056744;28;20282;-26
2023/12/01 00:18:32;;;;;;;0.00;0.00;;;5.20;78.30;;;;;;5079123;28;20204;-26
2023/12/01 00:20:59;;;;;;;0.00;0.00;;;5.20;78.20;;;;;;5047312;28;20200;-26
2023/12/01 00:23:30;;;;;;;0.00;0.00;;;5.20;78.30;;;;;;5047385;28;20200;-26
2023/12/01 00:26:00;;;;;;;0.00;0.00;;;5.20;78.40;;;;;;5047350;28;20212;-26
2023/12/01 00:28:29;;;;;;;0.00;0.00;;;5.20;78.40;;;;;;5048172;28;20200;-26
2023/12/01 00:31:01;;;;;;;0.00;0.00;;;5.20;78.40;;;;;;5076280;28;20579;-26
2023/12/01 00:33:30;;;;;;;0.00;0.00;;;5.20;78.40;;;;;;5054156;28;20285;-26
2023/12/01 00:36:00;;;;;;;0.00;0.00;;;5.20;78.40;;;;;;5055947;28;20202;-26
2023/12/01 00:38:27;;;;;;;0.00;0.00;;;5.20;78.40;;;;;;5048189;28;20204;-26
2023/12/01 00:40:54;;;;;;;0.00;0.00;;;5.30;78.40;;;;;;5045468;28;20203;-27
2023/12/01 00:43:25;;;;;;;0.00;0.00;;;5.20;78.40;;;;;;5047850;28;20212;-27
2023/12/01 00:45:53;;;;;;;0.00;0.00;;;5.30;78.40;;;;;;5055428;28;20195;-26
2023/12/01 00:48:20;;;;;;;0.00;0.00;;;5.20;78.30;;;;;;5067642;28;20207;-27
2023/12/01 00:50:52;;;;;;;0.00;0.00;;;5.20;78.30;;;;;;5067511;28;20211;-26
2023/12/01 00:53:26;;;;;;;0.00;0.00;;;5.20;78.20;;;;;;5064828;28;20192;-26
2023/12/01 00:55:53;;;;;;;0.00;0.00;;;5.20;78.20;;;;;;5066505;28;20238;-26
2023/12/01 00:58:24;;;;;;;0.00;0.00;;;5.20;78.20;;;;;;5064309;28;20318;-26
2023/12/01 01:00:51;;;;;;;0.00;0.00;;;5.20;78.30;;;;;;5061658;28;20678;-26
2023/12/01 01:03:18;;;;;;;0.00;0.00;;;5.20;78.30;;;;;;5063734;28;20197;-26
2023/12/01 01:05:46;;;;;;;0.00;0.00;;;5.20;78.30;;;;;;5048173;28;20341;-26
2023/12/01 01:08:15;;;;;;;0.00;0.00;;;5.20;78.30;;;;;;5054278;28;20200;-26
2023/12/01 01:10:45;;;;;;;0.00;0.00;;;5.20;78.30;;;;;;5046142;28;20817;-26
2023/12/01 01:13:17;;;;;;;0.00;0.00;;;5.20;78.30;;;;;;5047267;28;20224;-26
2023/12/01 01:15:44;;;;;;;0.00;0.00;;;5.20;79.00;;;;;;5045827;28;20207;-26
2023/12/01 01:18:15;;;;;;;0.00;0.00;;;5.20;78.20;;;;;;5045337;28;20203;-26
2023/12/01 01:20:44;;;;;;;0.00;0.00;;;5.20;78.20;;;;;;5047058;28;20203;-26
2023/12/01 01:23:11;;;;;;;0.00;0.00;;;5.20;78.30;;;;;;5045842;28;20232;-26
2023/12/01 01:25:39;;;;;;;0.00;0.00;;;5.30;78.30;;;;;;5044886;28;20318;-26
2023/12/01 01:28:11;;;;;;;0.00;0.00;;;5.20;78.00;;;;;;5047330;28;20200;-26
2023/12/01 01:30:39;;;;;;;0.00;0.00;;;5.20;77.90;;;;;;5047176;28;20200;-27
2023/12/01 01:33:08;;;;;;;0.00;0.00;;;5.10;77.70;;;;;;5045851;28;20328;-27
2023/12/01 01:35:35;;;;;;;0.00;0.00;;;5.10;77.90;;;;;;5057835;28;20227;-26
2023/12/01 01:38:02;;;;;;;0.00;0.00;;;5.10;77.90;;;;;;5048147;28;20203;-27
2023/12/01 01:40:32;;;;;;;0.00;0.00;;;5.10;77.90;;;;;;5064112;28;20224;-26
2023/12/01 01:43:00;;;;;;;0.00;0.00;;;5.10;78.00;;;;;;5045422;28;21033;-27
2023/12/01 01:45:28;;;;;;;0.00;0.00;;;5.10;77.90;;;;;;5056605;28;20196;-27
2023/12/01 01:47:55;;;;;;;0.00;0.00;;;5.10;77.90;;;;;;5067062;28;20203;-26
2023/12/01 01:50:28;;;;;;;0.00;0.00;;;5.00;77.80;;;;;;5048228;28;20668;-27
2023/12/01 01:52:58;;;;;;;0.00;0.00;;;5.00;78.50;;;;;;5046687;28;20238;-27
2023/12/01 01:55:28;;;;;;;0.00;0.00;;;5.00;77.70;;;;;;5066780;28;20601;-27
2023/12/01 01:58:00;;;;;;;0.00;0.00;;;5.00;77.60;;;;;;5046760;28;20299;-26
2023/12/01 02:00:30;;;;;;;0.00;0.00;;;4.90;77.60;;;;;;5047825;28;20215;-26
2023/12/01 02:03:02;;;;;;;0.00;0.00;;;4.90;77.70;;;;;;5055510;28;20320;-27
2023/12/01 02:05:33;;;;;;;0.00;0.00;;;4.90;77.70;;;;;;5055738;28;20658;-26
2023/12/01 02:08:30;;;;;;;0.00;0.00;;;4.90;77.80;;;;;;5056844;28;20200;-26
2023/12/01 02:10:57;;;;;;;0.00;0.00;;;4.80;77.80;;;;;;5024688;28;20216;-26
2023/12/01 02:13:30;;;;;;;0.00;0.00;;;4.80;77.80;;;;;;5048884;28;20225;-26
2023/12/01 02:16:02;;;;;;;0.00;0.00;;;4.80;77.70;;;;;;5050259;28;20680;-27
2023/12/01 02:18:33;;;;;;;0.00;0.00;;;4.80;77.70;;;;;;5051322;28;20212;-27
2023/12/01 02:21:04;;;;;;;0.00;0.00;;;4.80;77.50;;;;;;5047737;28;20636;-27
2023/12/01 02:23:33;;;;;;;0.00;0.00;;;4.80;77.50;;;;;;5047266;28;20216;-28
2023/12/01 02:26:04;;;;;;;0.00;0.00;;;4.80;77.50;;;;;;5047895;28;20563;-27
2023/12/01 02:28:32;;;;;;;0.00;0.00;;;4.70;77.50;;;;;;5059000;28;20673;-26
2023/12/01 02:30:59;;;;;;;0.00;0.00;;;4.70;77.60;;;;;;5065912;28;20298;-27
2023/12/01 02:33:28;;;;;;;0.00;0.00;;;4.70;77.60;;;;;;5063887;28;20224;-26
2023/12/01 02:35:58;;;;;;;0.00;0.00;;;4.70;77.70;;;;;;5046840;28;20643;-27
2023/12/01 02:38:28;;;;;;;0.00;0.00;;;4.70;77.70;;;;;;5051244;28;20227;-26
2023/12/01 02:40:55;;;;;;;0.00;0.00;;;4.70;77.70;;;;;;5054885;28;20215;-26
2023/12/01 02:43:27;;;;;;;0.00;0.00;;;4.70;77.70;;;;;;5069760;28;20204;-26
2023/12/01 02:45:55;;;;;;;0.00;0.00;;;4.70;77.60;;;;;;5066831;28;20250;-27
2023/12/01 02:48:25;;;;;;;0.00;0.00;;;4.70;77.60;;;;;;5068267;28;20841;-27
2023/12/01 02:50:53;;;;;;;0.00;0.00;;;4.70;77.60;;;;;;5068429;28;20204;-26
2023/12/01 02:53:23;;;;;;;0.00;0.00;;;4.70;77.60;;;;;;5069495;28;20223;-26
2023/12/01 02:55:53;;;;;;;0.00;0.00;;;4.70;77.50;;;;;;5049817;28;20881;-27
2023/12/01 02:58:26;;;;;;;0.00;0.00;;;4.70;77.50;;;;;;5049983;28;20971;-26
2023/12/01 03:00:54;;;;;;;0.00;0.00;;;4.70;77.40;;;;;;5051907;28;20655;-26
2023/12/01 03:03:21;;;;;;;0.00;0.00;;;4.70;77.40;;;;;;5067243;28;20196;-26
2023/12/01 03:05:49;;;;;;;0.00;0.00;;;4.70;77.50;;;;;;5049130;28;20242;-26
2023/12/01 03:08:18;;;;;;;0.00;0.00;;;4.70;77.50;;;;;;5049705;28;20247;-26
2023/12/01 03:10:49;;;;;;;0.00;0.00;;;4.70;77.50;;;;;;5062749;28;20588;-26
2023/12/01 03:13:21;;;;;;;0.00;0.00;;;4.70;77.50;;;;;;5068215;28;20265;-26
2023/12/01 03:15:50;;;;;;;0.00;0.00;;;4.70;77.50;;;;;;5063749;28;20191;-26
2023/12/01 03:18:20;;;;;;;0.00;0.00;;;4.70;77.60;;;;;;5068111;28;20192;-27
2023/12/01 03:20:50;;;;;;;0.00;0.00;;;4.70;77.60;;;;;;5067825;28;20204;-26
2023/12/01 03:23:22;;;;;;;0.00;0.00;;;4.70;77.40;;;;;;5069654;28;20204;-27
2023/12/01 03:25:49;;;;;;;0.00;0.00;;;4.70;77.40;;;;;;5067152;28;20222;-26
2023/12/01 03:28:18;;;;;;;0.00;0.00;;;4.70;77.60;;;;;;5067998;28;20207;-28
2023/12/01 03:30:49;;;;;;;0.00;0.00;;;4.70;77.50;;;;;;5065670;28;20254;-27
2023/12/01 03:33:16;;;;;;;0.00;0.00;;;4.70;77.60;;;;;;5067764;28;20708;-27
2023/12/01 03:35:45;;;;;;;0.00;0.00;;;4.70;77.50;;;;;;5064042;28;20220;-26
2023/12/01 03:38:17;;;;;;;0.00;0.00;;;4.70;77.40;;;;;;5052213;28;20749;-26
2023/12/01 03:40:47;;;;;;;0.00;0.00;;;4.70;77.40;;;;;;5056613;28;20192;-26
2023/12/01 03:43:14;;;;;;;0.00;0.00;;;4.70;77.40;;;;;;5047343;28;20212;-26
2023/12/01 03:45:43;;;;;;;0.00;0.00;;;4.60;77.20;;;;;;5077816;28;20200;-27
2023/12/01 03:48:13;;;;;;;0.00;0.00;;;4.60;77.10;;;;;;5048631;28;20624;-27
2023/12/01 03:50:40;;;;;;;0.00;0.00;;;4.60;77.10;;;;;;5067281;28;20211;-26
2023/12/01 03:53:08;;;;;;;0.00;0.00;;;4.50;77.10;;;;;;5066670;28;20701;-26
2023/12/01 03:55:37;;;;;;;0.00;0.00;;;4.50;77.20;;;;;;5047961;28;20322;-26
2023/12/01 03:58:05;;;;;;;0.00;0.00;;;4.50;77.20;;;;;;5048684;28;20388;-26
2023/12/01 04:00:35;;;;;;;0.00;0.00;;;4.50;77.20;;;;;;5048178;28;20837;-26
2023/12/01 04:03:02;;;;;;;0.00;0.00;;;4.50;77.20;;;;;;5060119;28;20282;-27
2023/12/01 04:05:32;;;;;;;0.00;0.00;;;4.40;77.10;;;;;;5066697;28;20235;-26
2023/12/01 04:08:03;;;;;;;0.00;0.00;;;4.40;77.00;;;;;;5066980;28;20553;-26
2023/12/01 04:10:34;;;;;;;0.00;0.00;;;4.40;77.10;;;;;;5050166;28;20212;-27
2023/12/01 04:13:08;;;;;;;0.00;0.00;;;4.40;77.00;;;;;;5048123;28;20366;-26
2023/12/01 04:15:38;;;;;;;0.00;0.00;;;4.40;77.00;;;;;;5080428;28;20417;-26
2023/12/01 04:18:08;;;;;;;0.00;0.00;;;4.30;76.90;;;;;;5068413;28;20237;-26
2023/12/01 04:20:38;;;;;;;0.00;0.00;;;4.30;76.90;;;;;;5063231;28;20215;-26
2023/12/01 04:23:09;;;;;;;0.00;0.00;;;4.30;76.80;;;;;;5061631;28;20214;-26
2023/12/01 04:25:38;;;;;;;0.00;0.00;;;4.30;77.00;;;;;;5061779;28;20207;-26
2023/12/01 04:28:09;;;;;;;0.00;0.00;;;4.30;77.00;;;;;;5067022;28;20228;-26
2023/12/01 04:30:36;;;;;;;0.00;0.00;;;4.30;77.10;;;;;;5064393;28;20206;-26
2023/12/01 04:33:04;;;;;;;0.00;0.00;;;4.30;77.10;;;;;;5064893;28;20251;-26
2023/12/01 04:35:33;;;;;;;0.00;0.00;;;4.30;77.30;;;;;;5068235;28;20290;-26
2023/12/01 04:38:05;;;;;;;0.00;0.00;;;4.30;77.20;;;;;;5066448;28;20329;-26
2023/12/01 04:40:37;;;;;;;0.00;0.00;;;4.30;77.20;;;;;;5067107;28;20264;-26
2023/12/01 04:43:04;;;;;;;0.00;0.00;;;4.30;77.30;;;;;;5066307;28;20210;-26
2023/12/01 04:45:36;;;;;;;0.00;0.00;;;4.30;77.30;;;;;;5062539;28;20198;-26
2023/12/01 04:48:10;;;;;;;0.00;0.00;;;4.40;77.20;;;;;;5066048;28;20239;-26
2023/12/01 04:50:48;;;;;;;0.00;0.00;;;4.40;78.10;;;;;;5048784;28;20199;-26
2023/12/01 04:53:20;;;;;;;0.00;0.00;;;4.40;77.20;;;;;;5047317;28;20705;-26
2023/12/01 04:55:50;;;;;;;0.00;0.00;;;4.40;77.20;;;;;;5053367;28;20652;-26
2023/12/01 04:58:20;;;;;;;0.00;0.00;;;4.40;77.00;;;;;;5047376;28;20203;-26
2023/12/01 05:00:47;;;;;;;0.00;0.00;;;4.40;77.10;;;;;;5054177;28;20300;-27
2023/12/01 05:03:14;;;;;;;0.00;0.00;;;4.30;77.10;;;;;;5051817;28;20200;-26
2023/12/01 05:05:44;;;;;;;0.00;0.00;;;4.30;77.50;;;;;;5048496;28;20319;-27
2023/12/01 05:08:12;;;;;;;0.00;0.00;;;4.30;76.90;;;;;;5047491;28;20200;-27
2023/12/01 05:10:44;;;;;;;0.00;0.00;;;4.30;76.90;;;;;;5060460;28;20678;-26
2023/12/01 05:13:14;;;;;;;0.00;0.00;;;4.30;76.90;;;;;;5066015;28;20907;-27
2023/12/01 05:15:41;;;;;;;0.00;0.00;;;4.30;76.90;;;;;;5063926;28;20196;-26
2023/12/01 05:18:11;;;;;;;0.00;0.00;;;4.30;76.90;;;;;;5045928;28;20225;-26
2023/12/01 05:20:39;;;;;;;0.00;0.00;;;4.30;76.80;;;;;;5046069;28;20204;-26
2023/12/01 05:23:10;;;;;;;0.00;0.00;;;4.20;76.70;;;;;;5047089;28;20219;-26
2023/12/01 05:25:41;;;;;;;0.00;0.00;;;4.20;76.80;;;;;;5046522;28;20196;-26
2023/12/01 05:28:10;;;;;;;0.00;0.00;;;4.20;76.80;;;;;;5065850;28;20199;-26
2023/12/01 05:30:43;;;;;;;0.00;0.00;;;4.20;76.80;;;;;;5060718;28;20218;-26
2023/12/01 05:33:14;;;;;;;0.00;0.00;;;4.20;76.90;;;;;;5066120;28;20214;-26
2023/12/01 05:35:43;;;;;;;0.00;0.00;;;4.20;76.90;;;;;;5065577;28;20196;-26
2023/12/01 05:38:13;;;;;;;0.00;0.00;;;4.20;76.90;;;;;;5047691;28;20204;-26
2023/12/01 05:40:45;;;;;;;0.00;0.00;;;4.20;76.90;;;;;;5061102;28;20822;-26
2023/12/01 05:43:16;;;;;;;0.00;0.00;;;4.20;77.00;;;;;;5065474;28;20195;-26
2023/12/01 05:45:46;;;;;;;0.00;0.00;;;4.20;76.90;;;;;;5065595;28;20199;-26
2023/12/01 05:48:16;;;;;;;0.00;0.00;;;4.20;77.00;;;;;;5065758;28;20323;-26
2023/12/01 05:50:48;;;;;;;0.00;0.00;;;4.20;76.90;;;;;;5052550;28;20240;-26
2023/12/01 05:53:19;;;;;;;0.00;0.00;;;4.20;76.80;;;;;;5046099;28;20585;-26
2023/12/01 05:55:49;;;;;;;0.00;0.00;;;4.20;76.80;;;;;;5059598;28;20207;-26
2023/12/01 05:58:16;;;;;;;0.00;0.00;;;4.20;76.70;;;;;;5051682;28;20739;-27
2023/12/01 06:00:46;;;;;;;0.00;0.00;;;4.20;76.70;;;;;;5047956;28;20205;-26
2023/12/01 06:03:13;;;;;;;0.00;0.00;;;4.20;76.70;;;;;;5052432;28;20251;-27
2023/12/01 06:05:41;;;;;;;0.00;0.00;;;4.10;76.50;;;;;;5053505;28;20243;-26
2023/12/01 06:08:08;;;;;;;0.00;0.00;;;4.10;76.40;;;;;;5050039;28;20552;-26
2023/12/01 06:10:41;;;;;;;0.00;0.00;;;4.10;76.40;;;;;;5046675;28;21014;-26
2023/12/01 06:13:09;;;;;;;0.00;0.00;;;4.00;76.30;;;;;;5062327;28;20218;-26
2023/12/01 06:15:37;;;;;;;0.00;0.00;;;4.00;76.30;;;;;;5058555;28;20211;-26
2023/12/01 06:18:04;;;;;;;0.00;0.00;;;4.00;76.50;;;;;;5055248;28;20217;-26
2023/12/01 06:20:34;;;;;;;0.00;0.00;;;4.00;76.50;;;;;;5051814;28;20219;-26
2023/12/01 06:23:06;;;;;;;0.00;0.00;;;3.90;76.20;;;;;;5057611;28;20200;-26
2023/12/01 06:25:41;;;;;;;0.00;0.00;;;3.90;76.20;;;;;;5054255;28;20247;-26
2023/12/01 06:28:11;;;;;;;0.00;0.00;;;3.90;76.30;;;;;;5054538;28;20195;-26
2023/12/01 06:30:40;;;;;;;0.00;0.00;;;3.90;76.30;;;;;;5058605;28;20776;-26
2023/12/01 06:33:10;;;;;;;0.00;0.00;;;3.90;76.50;;;;;;5051130;28;20220;-26
2023/12/01 06:35:38;;;;;;;0.00;0.00;;;3.90;76.40;;;;;;5050126;28;20306;-27
2023/12/01 06:38:08;;;;;;;0.00;0.00;;;3.80;76.30;;;;;;5050698;28;20610;-26
2023/12/01 06:40:38;;;;;;;0.00;0.00;;;3.80;76.20;;;;;;5062959;28;20678;-26
2023/12/01 06:43:14;;;;;;;0.00;0.00;;;3.80;76.30;;;;;;5051944;28;20200;-26
2023/12/01 06:45:41;;;;;;;0.00;0.00;;;3.80;76.40;;;;;;5053257;28;20215;-26
2023/12/01 06:48:11;;;;;;;0.00;0.00;;;3.80;76.60;;;;;;5072915;28;20292;-26
2023/12/01 06:50:41;;;;;;;0.00;0.00;;;3.80;76.60;;;;;;5064089;28;20382;-26
2023/12/01 06:53:11;;;;;;;0.00;0.00;;;3.80;76.50;;;;;;5051092;28;20224;-26
2023/12/01 06:55:41;;;;;;;0.00;0.00;;;3.80;76.50;;;;;;5063123;28;20668;-27
2023/12/01 06:58:09;;;;;;;0.00;0.00;;;3.80;76.50;;;;;;5067921;28;20223;-26
2023/12/01 07:00:41;;;;;;;0.00;0.00;;;3.80;76.30;;;;;;5054704;28;20204;-26
2023/12/01 07:03:11;;;;;;;0.00;0.00;;;3.80;76.40;;;;;;5060004;28;20258;-27
2023/12/01 07:05:39;;;;;;;0.00;0.00;;;3.80;76.30;;;;;;5062532;28;21055;-26
2023/12/01 07:08:14;;;;;;;0.00;0.00;;;3.80;76.20;;;;;;5055706;28;20207;-26
2023/12/01 07:10:47;;;;;;;0.00;0.00;;;3.80;76.20;;;;;;5054447;28;20196;-26
2023/12/01 07:13:17;;;;;;;0.00;0.00;;;3.70;76.30;;;;;;5035483;28;20212;-26
2023/12/01 07:15:45;;;;;;;0.00;0.00;;;3.70;76.30;;;;;;5051663;28;20346;-27
2023/12/01 07:18:14;;;;;;;0.00;0.00;;;3.70;76.30;;;;;;5056861;28;20208;-26
2023/12/01 07:20:43;;;;;;;0.00;0.00;;;3.70;76.40;;;;;;5061862;28;20192;-26
2023/12/01 07:23:13;;;;;;;0.00;0.00;;;3.70;76.30;;;;;;5068936;28;20208;-26
2023/12/01 07:25:40;;;;;;;0.00;0.00;;;3.70;76.10;;;;;;5057558;28;20286;-26
2023/12/01 07:28:11;;;;;;;0.00;0.00;;;3.70;76.30;;;;;;5057631;28;20212;-26
2023/12/01 07:30:40;;;;;;;0.00;0.00;;;3.70;76.10;;;;;;5059838;28;20203;-26
2023/12/01 07:33:08;;;;;;;0.00;0.00;;;3.70;76.20;;;;;;5054405;28;20630;-27
2023/12/01 07:35:46;;;;;;;0.00;0.00;;;3.70;76.30;;;;;;5056448;28;20258;-27
2023/12/01 07:38:15;;;;;;;0.00;0.00;;;3.70;76.30;;;;;;5048003;28;20203;-26
2023/12/01 07:40:44;;;;;;;0.00;0.00;;;3.70;76.30;;;;;;5048068;28;20193;-27
2023/12/01 07:43:11;;;;;;;0.00;0.00;;;3.70;76.30;;;;;;5052432;28;20212;-27
2023/12/01 07:45:41;;;;;;;0.00;0.00;;;3.60;76.30;;;;;;5058726;28;20348;-27
2023/12/01 07:48:09;;;;;;;0.00;0.00;;;3.60;76.20;;;;;;5051729;28;20212;-27
2023/12/01 07:50:39;;;;;;;0.00;0.00;;;3.60;76.30;;;;;;5048844;28;20211;-27
2023/12/01 07:53:09;;;;;;;0.00;0.00;;;3.60;76.10;;;;;;5053319;28;20226;-27
2023/12/01 07:55:36;;;;;;;0.00;0.00;;;3.60;76.20;;;;;;5052685;28;20665;-27
2023/12/01 07:58:06;;;;;;;0.00;0.00;;;3.60;76.30;;;;;;5056162;28;20281;-26
2023/12/01 08:00:40;;;;;;;0.00;0.00;;;3.60;76.10;;;;;;5057734;28;20206;-27
2023/12/01 08:03:10;;;;;;;0.00;0.00;;;3.60;76.20;;;;;;5061794;28;20309;-27
2023/12/01 08:05:40;;;;;;;0.00;0.00;;;3.60;76.20;;;;;;5049214;28;20240;-27
2023/12/01 08:08:08;;;;;;;0.00;0.00;;;3.60;76.20;;;;;;5063961;28;20208;-27
2023/12/01 08:10:38;;;;;;;0.00;0.00;;;3.50;76.00;;;;;;5052400;28;20316;-27
2023/12/01 08:13:10;;;;;;;0.00;0.00;;;3.50;76.00;;;;;;5055135;28;20212;-27
2023/12/01 08:15:38;;;;;;;0.00;0.00;;;3.50;76.10;;;;;;5053351;28;20203;-27
2023/12/01 08:18:11;;;;;;;0.00;0.00;;;3.50;76.20;;;;;;5049673;28;20242;-27
2023/12/01 08:20:41;;;;;;;0.00;0.00;;;3.50;76.30;;;;;;5061901;28;20202;-27
2023/12/01 08:23:11;;;;;;;0.00;0.00;;;3.50;76.40;;;;;;5054398;28;20587;-27
2023/12/01 08:25:39;;;;;;;0.00;0.00;;;3.50;76.40;;;;;;5067367;28;20242;-27
2023/12/01 08:28:09;;;;;;;0.00;0.00;;;3.60;76.60;;;;;;5051102;28;20204;-27
2023/12/01 08:30:36;;;;;;;0.00;0.00;;;3.60;76.50;;;;;;5048083;28;20247;-27
2023/12/01 08:33:14;;;;;;;0.00;0.00;;;3.60;76.50;;;;;;5053642;28;20614;-27
2023/12/01 08:35:42;;;;;;;0.00;0.00;;;3.60;76.40;;;;;;5057210;28;20747;-27
2023/12/01 08:38:11;;;;;;;0.00;0.00;;;3.60;76.30;;;;;;5053719;28;20214;-27
2023/12/01 08:40:41;;;;;;;0.00;0.00;;;3.60;76.30;;;;;;5051279;28;20734;-27
2023/12/01 08:43:10;;;;;;;0.00;0.00;;;3.60;76.20;;;;;;5068154;28;20196;-27
2023/12/01 08:45:43;;;;;;;0.00;0.00;;;3.60;76.20;;;;;;5058491;28;20219;-27
2023/12/01 08:48:10;;;;;;;0.00;0.00;;;3.60;76.20;;;;;;5048385;28;20253;-26
2023/12/01 08:50:38;;;;;;;0.00;0.00;;;3.60;76.20;;;;;;5048012;28;20211;-27
2023/12/01 08:53:07;;;;;;;0.00;0.00;;;3.50;76.20;;;;;;5061099;28;20774;-27
2023/12/01 08:55:36;;;;;;;0.00;0.00;;;3.50;76.30;;;;;;5048126;28;20415;-27
2023/12/01 08:58:06;;;;;;;0.00;0.00;;;3.60;76.50;;;;;;5063074;28;20200;-26
2023/12/01 09:00:36;;;;;;;0.00;0.00;;;3.60;76.50;;;;;;5057462;28;20228;-26
2023/12/01 09:03:03;;;;;;;0.00;0.00;;;3.60;76.50;;;;;;5053647;28;20977;-27
2023/12/01 09:05:33;;;;;;;0.00;0.00;;;3.60;76.60;;;;;;5049034;28;20319;-27
2023/12/01 09:08:04;;;;;;;0.00;0.00;;;3.70;76.50;;;;;;5065475;28;20210;-27
2023/12/01 09:10:34;;;;;;;0.00;0.00;;;3.70;76.60;;;;;;5058592;28;20294;-27
2023/12/01 09:13:04;;;;;;;0.00;0.00;;;3.70;76.50;;;;;;5061679;28;20207;-27
2023/12/01 09:15:33;;;;;;;0.00;0.00;;;3.70;76.40;;;;;;5049509;28;20698;-27
2023/12/01 09:18:03;;;;;;;0.00;0.00;;;3.70;76.40;;;;;;5062298;28;20207;-27
2023/12/01 09:20:30;;;;;;;0.00;0.00;;;3.70;76.30;;;;;;5045955;28;20798;-27
2023/12/01 09:23:03;;;;;;;0.00;0.00;;;3.70;76.20;;;;;;5048971;28;20215;-26
2023/12/01 09:25:30;;;;;;;0.00;0.00;;;3.70;76.20;;;;;;5047551;28;20302;-27
2023/12/01 09:27:58;;;;;;;0.00;0.00;;;3.60;77.00;;;;;;5047808;28;20239;-27
2023/12/01 09:30:30;;;;;;;0.00;0.00;;;3.60;76.20;;;;;;5047115;28;20675;-27
2023/12/01 09:32:59;;;;;;;0.00;0.00;;;3.60;76.30;;;;;;5047569;28;20216;-27
2023/12/01 09:35:31;;;;;;;0.00;0.00;;;3.60;76.50;;;;;;5046833;28;20193;-27
2023/12/01 09:38:21;;;;;;;0.00;0.00;;;3.70;76.60;;;;;;5048438;28;20208;-27
2023/12/01 09:40:50;;;;;;;0.00;0.00;;;3.70;76.60;;;;;;5046401;28;20215;-26
2023/12/01 09:43:18;;;;;;;0.00;0.00;;;3.70;76.50;;;;;;5047221;28;20219;-27
2023/12/01 09:45:46;;;;;;;0.00;0.00;;;3.70;76.50;;;;;;5062315;28;20566;-27
2023/12/01 09:48:19;;;;;;;0.00;0.00;;;3.70;76.50;;;;;;5051943;28;20670;-26
2023/12/01 09:50:50;;;;;;;0.00;0.00;;;3.70;76.60;;;;;;5049991;28;20279;-26
2023/12/01 09:53:22;;;;;;;0.00;0.00;;;3.80;76.70;;;;;;5052575;28;20590;-27
2023/12/01 09:55:50;;;;;;;0.00;0.00;;;3.80;76.70;;;;;;5057864;28;20204;-27
2023/12/01 09:58:22;;;;;;;0.00;0.00;;;3.80;76.60;;;;;;5055651;28;20196;-27
2023/12/01 10:00:52;;;;;;;0.00;0.00;;;3.80;76.60;;;;;;5057105;28;20600;-26
2023/12/01 10:03:21;;;;;;;0.00;0.00;;;3.90;76.70;;;;;;5057430;28;20208;-27
2023/12/01 10:05:54;;;;;;;0.00;0.00;;;3.90;76.50;;;;;;5061915;28;20257;-26
2023/12/01 10:08:21;;;;;;;0.00;0.00;;;3.90;76.50;;;;;;5066074;28;20195;-27
2023/12/01 10:10:48;;;;;;;0.00;0.00;;;3.80;77.10;;;;;;5057515;28;20580;-27
2023/12/01 10:13:20;;;;;;;0.00;0.00;;;3.80;76.30;;;;;;5060996;28;20219;-27
2023/12/01 10:15:48;;;;;;;0.00;0.00;;;3.80;76.30;;;;;;5052837;28;20725;-26
2023/12/01 10:18:20;;;;;;;0.00;0.00;;;3.80;76.50;;;;;;5063535;28;20211;-27
2023/12/01 10:21:02;;;;;;;0.00;0.00;;;3.80;76.40;;;;;;5060071;28;20208;-26
2023/12/01 10:23:36;;;;;;;0.00;0.00;;;3.80;76.90;;;;;;5055678;28;20195;-27
2023/12/01 10:26:09;;;;;;;0.00;0.00;;;3.80;76.50;;;;;;5069682;28;20203;-27
2023/12/01 10:28:41;;;;;;;0.00;0.00;;;3.80;76.50;;;;;;5049317;28;20291;-27
2023/12/01 10:31:14;;;;;;;0.00;0.00;;;3.80;76.40;;;;;;5050758;28;20212;-27
2023/12/01 10:33:42;;;;;;;0.00;0.00;;;3.80;76.50;;;;;;5059027;28;20224;-27
2023/12/01 10:36:14;;;;;;;0.00;0.00;;;3.80;76.40;;;;;;5064893;28;20718;-27
2023/12/01 10:38:46;;;;;;;0.00;0.00;;;3.80;76.40;;;;;;5066031;28;20219;-26
2023/12/01 10:41:15;;;;;;;0.00;0.00;;;3.80;76.40;;;;;;5063808;28;20188;-27
2023/12/01 10:43:48;;;;;;;0.00;0.00;;;3.80;76.50;;;;;;5052407;28;20195;-26
2023/12/01 10:46:18;;;;;;;0.00;0.00;;;3.80;76.60;;;;;;5067738;28;20622;-27
2023/12/01 10:48:49;;;;;;;0.00;0.00;;;3.80;76.50;;;;;;5053848;28;20708;-27
2023/12/01 10:51:21;;;;;;;0.00;0.00;;;3.80;76.50;;;;;;5050218;28;20196;-27
2023/12/01 10:53:49;;;;;;;0.00;0.00;;;3.80;76.50;;;;;;5048690;28;20654;-27
2023/12/01 10:56:20;;;;;;;0.00;0.00;;;3.80;76.40;;;;;;5048405;28;20188;-27
2023/12/01 10:58:53;;;;;;;0.00;0.00;;;3.80;76.40;;;;;;5049390;28;20705;-26
2023/12/01 11:01:29;;;;;;;0.00;0.00;;;3.80;76.50;;;;;;5053303;28;20199;-27
2023/12/01 11:04:00;;;;;;;0.00;0.00;;;3.80;76.50;;;;;;5051060;28;20214;-27
2023/12/01 11:06:46;;;;;;;0.00;0.00;;;3.80;76.50;;;;;;5048957;28;20244;-27
2023/12/01 11:09:28;;;;;;;0.00;0.00;;;3.80;76.50;;;;;;5052628;28;20219;-27
2023/12/01 11:12:14;;;;;;;0.00;0.00;;;3.80;76.60;;;;;;5053793;28;20234;-27
2023/12/01 11:14:44;;;;;;;0.00;0.00;;;3.80;76.50;;;;;;5062129;28;20245;-27
2023/12/01 11:17:16;;;;;;;0.00;0.00;;;3.90;77.30;;;;;;5061219;28;20199;-27
2023/12/01 11:19:48;;;;;;;0.00;0.00;;;3.80;76.50;;;;;;5056083;28;20266;-27
2023/12/01 11:22:37;;;;;;;0.00;0.00;;;3.80;76.40;;;;;;5059838;28;20219;-27
2023/12/01 11:25:05;;;;;;;0.00;0.00;;;3.80;76.50;;;;;;5054878;28;20224;-27
2023/12/01 11:27:35;;;;;;;0.00;0.00;;;3.80;76.50;;;;;;5054668;28;20244;-27
2023/12/01 11:30:08;;;;;;;0.00;0.00;;;3.90;76.60;;;;;;5065242;28;20353;-27
2023/12/01 11:32:40;;;;;;;0.00;0.00;;;3.90;76.60;;;;;;5051567;28;20751;-27
2023/12/01 11:35:12;;;;;;;0.00;0.00;;;3.90;76.70;;;;;;5054118;28;20228;-27
2023/12/01 11:37:59;;;;;;;0.00;0.00;;;3.90;76.80;;;;;;5056800;28;20729;-26
2023/12/01 11:40:37;;;;;;;0.00;0.00;;;4.00;76.80;;;;;;5060189;28;20216;-26
2023/12/01 11:43:07;;;;;;;0.00;0.00;;;4.00;76.60;;;;;;5056657;28;20208;-26
2023/12/01 11:45:48;;;;;;;0.00;0.00;;;4.00;76.60;;;;;;5065120;28;20927;-26
2023/12/01 11:48:17;;;;;;;0.00;0.00;;;4.00;76.50;;;;;;5052919;28;20879;-28
2023/12/01 11:50:46;;;;;;;0.00;0.00;;;4.00;76.60;;;;;;5057025;28;20620;-27
2023/12/01 11:53:13;;;;;;;0.00;0.00;;;4.00;76.50;;;;;;5057156;28;20779;-27
2023/12/01 11:55:51;;;;;;;0.00;0.00;;;4.00;76.40;;;;;;5056554;28;20216;-26
2023/12/01 11:58:23;;;;;;;0.00;0.00;;;4.10;76.50;;;;;;5049960;28;20211;-26
2023/12/01 12:00:53;;;;;;;0.00;0.00;;;4.10;76.60;;;;;;5055152;28;20202;-26
2023/12/01 12:03:28;;;;;;;0.00;0.00;;;4.10;76.60;;;;;;5054175;28;20196;-26
2023/12/01 12:06:01;;;;;;;0.00;0.00;;;4.10;76.50;;;;;;5049132;28;20244;-26
2023/12/01 12:08:35;;;;;;;0.00;0.00;;;4.10;76.50;;;;;;5051016;28;20204;-26
2023/12/01 12:11:11;;;;;;;0.00;0.00;;;4.10;76.50;;;;;;5048577;28;20673;-26
2023/12/01 12:13:38;;;;;;;0.00;0.00;;;4.00;76.30;;;;;;5057844;28;20207;-26
2023/12/01 12:16:07;;;;;;;0.00;0.00;;;4.00;76.20;;;;;;5055267;28;20232;-27
2023/12/01 12:18:37;;;;;;;0.00;0.00;;;4.00;76.30;;;;;;5057008;28;20234;-26
2023/12/01 12:21:08;;;;;;;0.00;0.00;;;4.00;76.30;;;;;;5059883;28;20282;-26
2023/12/01 12:23:39;;;;;;;0.00;0.00;;;4.10;76.50;;;;;;5054907;28;20282;-26
2023/12/01 12:26:18;;;;;;;0.00;0.00;;;4.10;76.70;;;;;;5060525;28;20226;-26
2023/12/01 12:28:58;;;;;;;0.00;0.00;;;4.10;76.60;;;;;;5049500;28;20208;-26
2023/12/01 12:31:42;;;;;;;0.00;0.00;;;4.10;76.50;;;;;;5059623;28;20294;-26
2023/12/01 12:34:10;;;;;;;0.00;0.00;;;4.20;76.60;;;;;;5050236;28;20223;-27
2023/12/01 12:36:38;;;;;;;0.00;0.00;;;4.20;76.60;;;;;;5059952;28;20206;-26
2023/12/01 12:39:16;;;;;;;0.00;0.00;;;4.20;76.40;;;;;;5063903;28;20206;-26
2023/12/01 12:41:53;;;;;;;0.00;0.00;;;4.20;76.50;;;;;;5064571;28;20713;-26
2023/12/01 12:44:23;;;;;;;0.00;0.00;;;4.20;76.50;;;;;;5049891;28;20292;-26
2023/12/01 12:47:01;;;;;;;0.00;0.00;;;4.20;76.60;;;;;;5058466;28;20204;-27
2023/12/01 12:49:33;;;;;;;0.00;0.00;;;4.20;76.60;;;;;;5053147;28;20258;-27
2023/12/01 12:52:05;;;;;;;0.00;0.00;;;4.20;76.40;;;;;;5058644;28;20258;-26
2023/12/01 12:54:32;;;;;;;0.00;0.00;;;4.20;76.50;;;;;;5046363;28;20709;-26
2023/12/01 12:57:04;;;;;;;0.00;0.00;;;4.30;76.60;;;;;;5051453;28;20264;-26
2023/12/01 12:59:32;;;;;;;0.00;0.00;;;4.30;76.60;;;;;;5073942;28;20295;-26
2023/12/01 13:02:02;;;;;;;0.00;0.00;;;4.30;76.60;;;;;;5058977;28;20794;-26
2023/12/01 13:04:34;;;;;;;0.00;0.00;;;4.40;76.70;;;;;;5049889;28;20227;-26
2023/12/01 13:07:04;;;;;;;0.00;0.00;;;4.40;76.60;;;;;;5060074;28;20531;-26
2023/12/01 13:09:37;;;;;;;0.00;0.00;;;4.40;76.40;;;;;;5056514;28;20774;-27
2023/12/01 13:12:07;;;;;;;0.00;0.00;;;4.40;76.30;;;;;;5054758;28;20192;-27
2023/12/01 13:14:34;;;;;;;0.00;0.00;;;4.30;76.10;;;;;;5057804;28;20219;-27